Time;durP1;ratioP1;P1;durP2;ratioP2;P2;SDS_P1;SDS_P2;PMS_P1;PMS_P2;Temp;Humidity;BMP_temperature;BMP_pressure;BME280_temperature;BME280_humidity;BME280_pressure;Samples;Min_cycle;Max_cycle;Signal;HPM_P1;HPM_P2
2024/02/03 00:02:11;;;;;;;;;;;;;;;;;;4925993;29;5161;-62
2024/02/03 00:04:36;;;;;;;;;;;;;;;;;;4901725;29;4875;-62
2024/02/03 00:07:02;;;;;;;;;;;;;;;;;;4931493;29;1298;-63
2024/02/03 00:09:27;;;;;;;;;;;;;;;;;;4930842;29;4598;-62
2024/02/03 00:11:52;;;;;;;;;;;;;;;;;;4928859;29;5041;-63
2024/02/03 00:14:18;;;;;;;;;;;;;;;;;;4928907;29;5037;-63
2024/02/03 00:16:43;;;;;;;;;;;;;;;;;;4928311;29;4498;-63
2024/02/03 00:19:08;;;;;;;;;;;;;;;;;;4927519;29;3362;-68
2024/02/03 00:21:34;;;;;;;;;;;;;;;;;;4930205;29;4542;-63
2024/02/03 00:23:59;;;;;;;;;;;;;;;;;;4929605;29;5056;-64
2024/02/03 00:26:24;;;;;;;;;;;;;;;;;;4927712;29;5360;-65
2024/02/03 00:28:51;;;;;;;;;;;;;;;;;;4930644;29;4546;-66
2024/02/03 00:31:16;;;;;;;;;;;;;;;;;;4913248;29;5179;-63
2024/02/03 00:33:41;;;;;;;;;;;;;;;;;;4929041;29;3766;-63
2024/02/03 00:36:07;;;;;;;;;;;;;;;;;;4927878;29;4606;-63
2024/02/03 00:38:32;;;;;;;;;;;;;;;;;;4928113;29;5341;-62
2024/02/03 00:40:57;;;;;;;;;;;;;;;;;;4927443;29;4589;-63
2024/02/03 00:43:23;;;;;;;;;;;;;;;;;;4929501;29;5305;-62
2024/02/03 00:45:48;;;;;;;;;;;;;;;;;;4931916;29;3433;-62
2024/02/03 00:48:13;;;;;;;;;;;;;;;;;;4928822;29;5081;-63
2024/02/03 00:50:39;;;;;;;;;;;;;;;;;;4928137;29;4780;-63
2024/02/03 00:53:04;;;;;;;;;;;;;;;;;;4929474;29;5139;-63
2024/02/03 00:55:29;;;;;;;;;;;;;;;;;;4928410;28;5134;-69
2024/02/03 00:57:55;;;;;;;;;;;;;;;;;;4927793;29;3621;-65
2024/02/03 01:00:23;;;;;;;;;;;;;;;;;;4905864;29;5028;-67
2024/02/03 01:02:48;;;;;;;;;;;;;;;;;;4925522;29;5197;-63
2024/02/03 01:05:13;;;;;;;;;;;;;;;;;;4928116;29;4536;-64
2024/02/03 01:07:39;;;;;;;;;;;;;;;;;;4931388;29;4920;-64
2024/02/03 01:10:06;;;;;;;;;;;;;;;;;;4925574;29;3460;-63
2024/02/03 01:12:31;;;;;;;;;;;;;;;;;;4907614;29;4477;-65
2024/02/03 01:14:56;;;;;;;;;;;;;;;;;;4922251;29;4507;-65
2024/02/03 01:17:22;;;;;;;;;;;;;;;;;;4927025;29;4475;-66
2024/02/03 01:19:47;;;;;;;;;;;;;;;;;;4924160;29;4550;-65
2024/02/03 01:22:12;;;;;;;;;;;;;;;;;;4929966;29;5093;-68
2024/02/03 01:24:38;;;;;;;;;;;;;;;;;;4920604;29;3456;-63
2024/02/03 01:27:03;;;;;;;;;;;;;;;;;;4921986;29;5119;-65
2024/02/03 01:29:29;;;;;;;;;;;;;;;;;;4925322;29;4736;-64
2024/02/03 01:31:54;;;;;;;;;;;;;;;;;;4925117;29;5130;-62
2024/02/03 01:34:19;;;;;;;;;;;;;;;;;;4925630;29;4544;-65
2024/02/03 01:36:45;;;;;;;;;;;;;;;;;;4929879;29;3733;-66
2024/02/03 01:39:10;;;;;;;;;;;;;;;;;;4925936;29;4703;-66
2024/02/03 01:41:35;;;;;;;;;;;;;;;;;;4928714;29;4533;-62
2024/02/03 01:44:01;;;;;;;;;;;;;;;;;;4926863;29;4726;-66
2024/02/03 01:46:26;;;;;;;;;;;;;;;;;;4912462;29;5147;-64
2024/02/03 01:48:52;;;;;;;;;;;;;;;;;;4908648;29;3498;-65
2024/02/03 01:51:17;;;;;;;;;;;;;;;;;;4928692;29;4588;-65
2024/02/03 01:53:43;;;;;;;;;;;;;;;;;;4930227;29;4959;-63
2024/02/03 01:56:08;;;;;;;;;;;;;;;;;;4893308;29;5253;-66
2024/02/03 01:58:33;;;;;;;;;;;;;;;;;;4915117;29;5069;-63
2024/02/03 02:00:59;;;;;;;;;;;;;;;;;;4927804;29;3432;-63
2024/02/03 02:03:24;;;;;;;;;;;;;;;;;;4930466;29;4657;-63
2024/02/03 02:05:49;;;;;;;;;;;;;;;;;;4922634;29;5010;-68
2024/02/03 02:08:14;;;;;;;;;;;;;;;;;;4922843;29;5039;-64
2024/02/03 02:10:40;;;;;;;;;;;;;;;;;;4921907;29;4993;-65
2024/02/03 02:13:05;;;;;;;;;;;;;;;;;;4926186;29;3456;-65
2024/02/03 02:15:31;;;;;;;;;;;;;;;;;;4923224;29;5185;-65
2024/02/03 02:17:59;;;;;;;;;;;;;;;;;;4928709;29;5035;-63
2024/02/03 02:20:24;;;;;;;;;;;;;;;;;;4927112;29;5275;-63
2024/02/03 02:22:50;;;;;;;;;;;;;;;;;;4925948;29;5988;-63
2024/02/03 02:25:15;;;;;;;;;;;;;;;;;;4912552;29;5098;-68
2024/02/03 02:27:40;;;;;;;;;;;;;;;;;;4927960;29;3683;-63
2024/02/03 02:30:06;;;;;;;;;;;;;;;;;;4909580;29;5047;-63
2024/02/03 02:32:31;;;;;;;;;;;;;;;;;;4905913;29;4888;-62
2024/02/03 02:34:56;;;;;;;;;;;;;;;;;;4928676;29;4512;-64
2024/02/03 02:37:22;;;;;;;;;;;;;;;;;;4928695;29;4625;-64
2024/02/03 02:39:47;;;;;;;;;;;;;;;;;;4931148;29;3402;-66
2024/02/03 02:42:13;;;;;;;;;;;;;;;;;;4926899;29;4473;-64
2024/02/03 02:44:38;;;;;;;;;;;;;;;;;;4910259;29;5230;-63
2024/02/03 02:47:04;;;;;;;;;;;;;;;;;;4924752;29;5151;-63
2024/02/03 02:49:29;;;;;;;;;;;;;;;;;;4929383;29;5318;-64
2024/02/03 02:51:54;;;;;;;;;;;;;;;;;;4928868;29;3507;-65
2024/02/03 02:54:20;;;;;;;;;;;;;;;;;;4929508;29;5580;-62
2024/02/03 02:56:45;;;;;;;;;;;;;;;;;;4929414;28;4898;-64
2024/02/03 02:59:10;;;;;;;;;;;;;;;;;;4927975;29;5102;-64
2024/02/03 03:01:35;;;;;;;;;;;;;;;;;;4929424;29;4578;-62
2024/02/03 03:04:01;;;;;;;;;;;;;;;;;;4931822;29;1207;-62
2024/02/03 03:06:26;;;;;;;;;;;;;;;;;;4930550;29;4861;-62
2024/02/03 03:08:51;;;;;;;;;;;;;;;;;;4928776;29;5102;-63
2024/02/03 03:11:17;;;;;;;;;;;;;;;;;;4928446;29;5053;-63
2024/02/03 03:13:42;;;;;;;;;;;;;;;;;;4926996;29;4713;-62
2024/02/03 03:16:08;;;;;;;;;;;;;;;;;;4931305;29;1081;-62
2024/02/03 03:18:34;;;;;;;;;;;;;;;;;;4929538;29;5073;-65
2024/02/03 03:20:59;;;;;;;;;;;;;;;;;;4927555;29;5095;-63
2024/02/03 03:23:24;;;;;;;;;;;;;;;;;;4923859;29;5428;-66
2024/02/03 03:25:50;;;;;;;;;;;;;;;;;;4924243;29;5180;-64
2024/02/03 03:28:15;;;;;;;;;;;;;;;;;;4926499;29;5198;-66
2024/02/03 03:30:41;;;;;;;;;;;;;;;;;;4931013;29;3716;-65
2024/02/03 03:33:07;;;;;;;;;;;;;;;;;;4924056;29;5122;-64
2024/02/03 03:35:32;;;;;;;;;;;;;;;;;;4925432;29;4519;-62
2024/02/03 03:37:57;;;;;;;;;;;;;;;;;;4926275;29;5124;-62
2024/02/03 03:40:23;;;;;;;;;;;;;;;;;;4926046;29;5096;-62
2024/02/03 03:42:49;;;;;;;;;;;;;;;;;;4923966;29;3660;-65
2024/02/03 03:45:16;;;;;;;;;;;;;;;;;;4925588;29;5209;-70
2024/02/03 03:47:41;;;;;;;;;;;;;;;;;;4919536;29;5206;-63
2024/02/03 03:50:07;;;;;;;;;;;;;;;;;;4926305;29;5070;-64
2024/02/03 03:52:32;;;;;;;;;;;;;;;;;;4923872;29;5347;-65
2024/02/03 03:54:57;;;;;;;;;;;;;;;;;;4923519;29;3631;-63
2024/02/03 03:57:23;;;;;;;;;;;;;;;;;;4928687;28;5106;-64
2024/02/03 03:59:48;;;;;;;;;;;;;;;;;;4928571;29;4802;-68
2024/02/03 04:02:14;;;;;;;;;;;;;;;;;;4909112;29;4848;-63
2024/02/03 04:04:39;;;;;;;;;;;;;;;;;;4922937;29;5121;-68
2024/02/03 04:07:05;;;;;;;;;;;;;;;;;;4932296;29;3385;-64
2024/02/03 04:09:30;;;;;;;;;;;;;;;;;;4926915;29;4538;-66
2024/02/03 04:11:55;;;;;;;;;;;;;;;;;;4930121;29;5005;-65
2024/02/03 04:14:21;;;;;;;;;;;;;;;;;;4926655;29;5123;-65
2024/02/03 04:16:46;;;;;;;;;;;;;;;;;;4926718;29;5079;-63
2024/02/03 04:19:11;;;;;;;;;;;;;;;;;;4929548;29;3589;-63
2024/02/03 04:21:37;;;;;;;;;;;;;;;;;;4929462;29;4998;-62
2024/02/03 04:24:02;;;;;;;;;;;;;;;;;;4926125;29;4807;-63
2024/02/03 04:26:27;;;;;;;;;;;;;;;;;;4910683;29;5162;-65
2024/02/03 04:28:53;;;;;;;;;;;;;;;;;;4926573;29;4795;-64
2024/02/03 04:31:18;;;;;;;;;;;;;;;;;;4930265;29;5386;-63
2024/02/03 04:33:43;;;;;;;;;;;;;;;;;;4926290;29;3665;-65
2024/02/03 04:36:09;;;;;;;;;;;;;;;;;;4928777;29;5024;-62
2024/02/03 04:38:34;;;;;;;;;;;;;;;;;;4927833;29;4700;-67
2024/02/03 04:40:59;;;;;;;;;;;;;;;;;;4928813;29;4594;-62
2024/02/03 04:43:25;;;;;;;;;;;;;;;;;;4931043;29;5137;-65
2024/02/03 04:45:50;;;;;;;;;;;;;;;;;;4932965;29;3531;-65
2024/02/03 04:48:15;;;;;;;;;;;;;;;;;;4929944;29;5200;-64
2024/02/03 04:50:41;;;;;;;;;;;;;;;;;;4927052;29;4797;-65
2024/02/03 04:53:06;;;;;;;;;;;;;;;;;;4931993;29;4962;-66
2024/02/03 04:55:31;;;;;;;;;;;;;;;;;;4930842;28;5165;-65
2024/02/03 04:57:57;;;;;;;;;;;;;;;;;;4931337;29;3381;-66
2024/02/03 05:00:22;;;;;;;;;;;;;;;;;;4927614;29;4565;-66
2024/02/03 05:02:47;;;;;;;;;;;;;;;;;;4928012;29;5173;-63
2024/02/03 05:05:12;;;;;;;;;;;;;;;;;;4930336;29;5005;-63
2024/02/03 05:07:38;;;;;;;;;;;;;;;;;;4895900;29;5330;-62
2024/02/03 05:10:04;;;;;;;;;;;;;;;;;;4928186;29;3446;-64
2024/02/03 05:12:31;;;;;;;;;;;;;;;;;;4905283;29;5060;-62
2024/02/03 05:14:56;;;;;;;;;;;;;;;;;;4927588;29;4522;-64
2024/02/03 05:17:22;;;;;;;;;;;;;;;;;;4928900;29;4970;-66
2024/02/03 05:19:47;;;;;;;;;;;;;;;;;;4926267;29;5717;-69
2024/02/03 05:22:12;;;;;;;;;;;;;;;;;;4913194;29;5022;-63
2024/02/03 05:24:38;;;;;;;;;;;;;;;;;;4925145;29;3526;-63
2024/02/03 05:27:03;;;;;;;;;;;;;;;;;;4928766;29;5320;-62
2024/02/03 05:29:28;;;;;;;;;;;;;;;;;;4924887;29;5217;-65
2024/02/03 05:31:53;;;;;;;;;;;;;;;;;;4910738;29;5047;-64
2024/02/03 05:34:19;;;;;;;;;;;;;;;;;;4925394;29;5353;-64
2024/02/03 05:36:44;;;;;;;;;;;;;;;;;;4931563;29;3825;-62
2024/02/03 05:39:09;;;;;;;;;;;;;;;;;;4923229;29;4711;-62
2024/02/03 05:41:35;;;;;;;;;;;;;;;;;;4927503;29;4948;-64
2024/02/03 05:44:00;;;;;;;;;;;;;;;;;;4929165;29;5140;-70
2024/02/03 05:46:25;;;;;;;;;;;;;;;;;;4906763;29;5440;-65
2024/02/03 05:48:50;;;;;;;;;;;;;;;;;;4924568;29;3484;-63
2024/02/03 05:51:17;;;;;;;;;;;;;;;;;;4928606;29;5285;-62
2024/02/03 05:53:43;;;;;;;;;;;;;;;;;;4927923;29;4497;-63
2024/02/03 05:56:08;;;;;;;;;;;;;;;;;;4907317;29;5242;-64
2024/02/03 05:58:34;;;;;;;;;;;;;;;;;;4925854;29;4533;-64
2024/02/03 06:00:59;;;;;;;;;;;;;;;;;;4924379;29;3544;-68
2024/02/03 06:03:25;;;;;;;;;;;;;;;;;;4927988;29;4483;-63
2024/02/03 06:05:50;;;;;;;;;;;;;;;;;;4926077;29;4959;-64
2024/02/03 06:08:16;;;;;;;;;;;;;;;;;;4925038;29;5068;-69
2024/02/03 06:10:41;;;;;;;;;;;;;;;;;;4926688;29;4650;-62
2024/02/03 06:13:07;;;;;;;;;;;;;;;;;;4928625;29;3559;-62
2024/02/03 06:15:32;;;;;;;;;;;;;;;;;;4925542;29;5090;-66
2024/02/03 06:17:57;;;;;;;;;;;;;;;;;;4924282;29;4722;-65
2024/02/03 06:20:23;;;;;;;;;;;;;;;;;;4921178;29;5043;-63
2024/02/03 06:22:48;;;;;;;;;;;;;;;;;;4923318;29;4565;-65
2024/02/03 06:25:13;;;;;;;;;;;;;;;;;;4928155;29;4543;-67
2024/02/03 06:27:38;;;;;;;;;;;;;;;;;;4898515;29;3483;-64
2024/02/03 06:30:04;;;;;;;;;;;;;;;;;;4929286;29;5190;-66
2024/02/03 06:32:29;;;;;;;;;;;;;;;;;;4929236;29;4941;-65
2024/02/03 06:34:55;;;;;;;;;;;;;;;;;;4930502;29;5086;-64
2024/02/03 06:37:20;;;;;;;;;;;;;;;;;;4930016;29;4652;-67
2024/02/03 06:39:45;;;;;;;;;;;;;;;;;;4931754;29;1089;-64
2024/02/03 06:42:11;;;;;;;;;;;;;;;;;;4926246;29;5125;-64
2024/02/03 06:44:36;;;;;;;;;;;;;;;;;;4931163;29;5024;-63
2024/02/03 06:47:01;;;;;;;;;;;;;;;;;;4923439;29;5178;-65
2024/02/03 06:49:26;;;;;;;;;;;;;;;;;;4923526;29;5206;-65
2024/02/03 06:51:52;;;;;;;;;;;;;;;;;;4931907;29;1261;-68
2024/02/03 06:54:17;;;;;;;;;;;;;;;;;;4931212;29;4445;-63
2024/02/03 06:56:43;;;;;;;;;;;;;;;;;;4907393;29;6081;-66
2024/02/03 06:59:08;;;;;;;;;;;;;;;;;;4910092;29;5149;-66
2024/02/03 07:01:33;;;;;;;;;;;;;;;;;;4923222;29;4994;-66
2024/02/03 07:03:59;;;;;;;;;;;;;;;;;;4928108;29;1010;-65
2024/02/03 07:06:24;;;;;;;;;;;;;;;;;;4928796;29;4582;-63
2024/02/03 07:08:49;;;;;;;;;;;;;;;;;;4929645;29;5196;-67
2024/02/03 07:11:15;;;;;;;;;;;;;;;;;;4928108;29;4651;-63
2024/02/03 07:13:41;;;;;;;;;;;;;;;;;;4913076;29;5304;-65
2024/02/03 07:16:08;;;;;;;;;;;;;;;;;;4928236;29;3315;-62
2024/02/03 07:18:33;;;;;;;;;;;;;;;;;;4913322;29;5163;-63
2024/02/03 07:20:58;;;;;;;;;;;;;;;;;;4925440;29;4548;-66
2024/02/03 07:23:23;;;;;;;;;;;;;;;;;;4929965;29;4667;-65
2024/02/03 07:25:49;;;;;;;;;;;;;;;;;;4908862;29;5504;-63
2024/02/03 07:28:14;;;;;;;;;;;;;;;;;;4930091;29;5226;-64
2024/02/03 07:30:39;;;;;;;;;;;;;;;;;;4924595;29;3407;-64
2024/02/03 07:33:07;;;;;;;;;;;;;;;;;;4929377;29;4683;-64
2024/02/03 07:35:32;;;;;;;;;;;;;;;;;;4929504;29;5119;-65
2024/02/03 07:37:58;;;;;;;;;;;;;;;;;;4929044;29;5001;-65
2024/02/03 07:40:23;;;;;;;;;;;;;;;;;;4926681;29;4874;-65
2024/02/03 07:42:49;;;;;;;;;;;;;;;;;;4913159;29;1412;-66
2024/02/03 07:45:14;;;;;;;;;;;;;;;;;;4922683;29;4562;-69
2024/02/03 07:47:39;;;;;;;;;;;;;;;;;;4929422;29;5187;-65
2024/02/03 07:50:05;;;;;;;;;;;;;;;;;;4929879;29;5285;-64
2024/02/03 07:52:31;;;;;;;;;;;;;;;;;;4929721;29;5199;-65
2024/02/03 07:54:56;;;;;;;;;;;;;;;;;;4929799;29;3421;-66
2024/02/03 07:57:21;;;;;;;;;;;;;;;;;;4927646;28;4627;-64
2024/02/03 07:59:47;;;;;;;;;;;;;;;;;;4922448;29;4569;-64
2024/02/03 08:02:12;;;;;;;;;;;;;;;;;;4928386;29;4980;-63
2024/02/03 08:04:37;;;;;;;;;;;;;;;;;;4928192;29;5109;-64
2024/02/03 08:07:03;;;;;;;;;;;;;;;;;;4928123;29;3235;-64
2024/02/03 08:09:28;;;;;;;;;;;;;;;;;;4914545;29;4477;-63
2024/02/03 08:11:53;;;;;;;;;;;;;;;;;;4923731;29;4683;-66
2024/02/03 08:14:20;;;;;;;;;;;;;;;;;;4923796;29;5317;-65
2024/02/03 08:16:45;;;;;;;;;;;;;;;;;;4926573;29;4756;-66
2024/02/03 08:19:11;;;;;;;;;;;;;;;;;;4925596;29;3456;-64
2024/02/03 08:21:37;;;;;;;;;;;;;;;;;;4911127;29;4871;-66
2024/02/03 08:24:02;;;;;;;;;;;;;;;;;;4925352;29;4464;-64
2024/02/03 08:26:28;;;;;;;;;;;;;;;;;;4906380;29;4518;-65
2024/02/03 08:28:53;;;;;;;;;;;;;;;;;;4910693;29;5046;-64
2024/02/03 08:31:18;;;;;;;;;;;;;;;;;;4927895;29;5356;-69
2024/02/03 08:33:44;;;;;;;;;;;;;;;;;;4926811;29;3098;-64
2024/02/03 08:36:09;;;;;;;;;;;;;;;;;;4903988;29;5093;-63
2024/02/03 08:38:34;;;;;;;;;;;;;;;;;;4923931;29;5109;-64
2024/02/03 08:41:00;;;;;;;;;;;;;;;;;;4906398;29;5402;-68
2024/02/03 08:43:25;;;;;;;;;;;;;;;;;;4914476;29;5236;-64
2024/02/03 08:45:50;;;;;;;;;;;;;;;;;;4931945;29;3300;-64
2024/02/03 08:48:16;;;;;;;;;;;;;;;;;;4932963;29;4677;-64
2024/02/03 08:50:41;;;;;;;;;;;;;;;;;;4933346;29;4945;-63
2024/02/03 08:53:07;;;;;;;;;;;;;;;;;;4928255;29;5063;-68
2024/02/03 08:55:33;;;;;;;;;;;;;;;;;;4929493;29;5188;-65
2024/02/03 08:57:58;;;;;;;;;;;;;;;;;;4931932;29;3359;-63
2024/02/03 09:00:23;;;;;;;;;;;;;;;;;;4928020;29;4991;-65
2024/02/03 09:02:48;;;;;;;;;;;;;;;;;;4923796;29;4565;-63
2024/02/03 09:05:16;;;;;;;;;;;;;;;;;;4929969;29;5007;-65
2024/02/03 09:07:41;;;;;;;;;;;;;;;;;;4928991;29;4549;-64
2024/02/03 09:10:07;;;;;;;;;;;;;;;;;;4931920;29;3190;-64
2024/02/03 09:12:32;;;;;;;;;;;;;;;;;;4929108;29;5220;-67
2024/02/03 09:14:57;;;;;;;;;;;;;;;;;;4924002;29;4549;-68
2024/02/03 09:17:22;;;;;;;;;;;;;;;;;;4930512;29;4615;-66
2024/02/03 09:19:48;;;;;;;;;;;;;;;;;;4927835;29;5382;-62
2024/02/03 09:22:16;;;;;;;;;;;;;;;;;;4921137;29;5176;-63
2024/02/03 09:24:41;;;;;;;;;;;;;;;;;;4923157;29;3398;-62
2024/02/03 09:27:07;;;;;;;;;;;;;;;;;;4909841;29;4525;-61
2024/02/03 09:29:32;;;;;;;;;;;;;;;;;;4931238;29;4635;-60
2024/02/03 09:31:58;;;;;;;;;;;;;;;;;;4928017;29;4520;-60
2024/02/03 09:34:23;;;;;;;;;;;;;;;;;;4929901;29;5227;-61
2024/02/03 09:36:48;;;;;;;;;;;;;;;;;;4930352;29;1099;-62
2024/02/03 09:39:14;;;;;;;;;;;;;;;;;;4928120;29;4893;-63
2024/02/03 09:41:39;;;;;;;;;;;;;;;;;;4926786;29;4643;-61
2024/02/03 09:44:04;;;;;;;;;;;;;;;;;;4909077;29;5202;-65
2024/02/03 09:46:30;;;;;;;;;;;;;;;;;;4906172;29;5173;-62
2024/02/03 09:48:56;;;;;;;;;;;;;;;;;;4929523;29;3269;-61
2024/02/03 09:51:22;;;;;;;;;;;;;;;;;;4929391;29;5226;-65
2024/02/03 09:53:47;;;;;;;;;;;;;;;;;;4907404;29;5090;-63
2024/02/03 09:56:12;;;;;;;;;;;;;;;;;;4907542;29;4792;-63
2024/02/03 09:58:38;;;;;;;;;;;;;;;;;;4926280;29;5130;-64
2024/02/03 10:01:03;;;;;;;;;;;;;;;;;;4927017;29;3414;-65
2024/02/03 10:03:28;;;;;;;;;;;;;;;;;;4925812;29;5019;-65
2024/02/03 10:06:00;;;;;;;;;;;;;;;;;;4930351;29;4483;-64
2024/02/03 10:08:26;;;;;;;;;;;;;;;;;;4931372;29;5567;-63
2024/02/03 10:10:55;;;;;;;;;;;;;;;;;;4910016;29;5222;-64
2024/02/03 10:13:20;;;;;;;;;;;;;;;;;;4911234;29;5301;-64
2024/02/03 10:15:56;;;;;;;;;;;;;;;;;;4930872;29;1175;-63
2024/02/03 10:18:21;;;;;;;;;;;;;;;;;;4902842;29;5053;-63
2024/02/03 10:20:46;;;;;;;;;;;;;;;;;;4926697;29;4986;-63
2024/02/03 10:23:12;;;;;;;;;;;;;;;;;;4926919;29;5109;-63
2024/02/03 10:25:37;;;;;;;;;;;;;;;;;;4928593;29;4568;-62
2024/02/03 10:28:03;;;;;;;;;;;;;;;;;;4924652;29;3569;-62
2024/02/03 10:30:30;;;;;;;;;;;;;;;;;;4926211;29;4480;-62
2024/02/03 10:32:57;;;;;;;;;;;;;;;;;;4920091;29;5125;-60
2024/02/03 10:35:22;;;;;;;;;;;;;;;;;;4927440;29;4714;-66
2024/02/03 10:37:47;;;;;;;;;;;;;;;;;;4929976;29;4715;-61
2024/02/03 10:40:13;;;;;;;;;;;;;;;;;;4924656;29;4527;-65
2024/02/03 10:42:38;;;;;;;;;;;;;;;;;;4922405;29;3605;-59
2024/02/03 10:45:03;;;;;;;;;;;;;;;;;;4902877;29;4647;-59
2024/02/03 10:47:29;;;;;;;;;;;;;;;;;;4896661;29;4591;-60
2024/02/03 10:49:55;;;;;;;;;;;;;;;;;;4903773;29;4764;-62
2024/02/03 10:52:20;;;;;;;;;;;;;;;;;;4905647;29;4614;-62
2024/02/03 10:54:46;;;;;;;;;;;;;;;;;;4910041;29;3287;-59
2024/02/03 10:57:12;;;;;;;;;;;;;;;;;;4927554;28;4502;-61
2024/02/03 10:59:38;;;;;;;;;;;;;;;;;;4925036;29;4505;-60
2024/02/03 11:02:13;;;;;;;;;;;;;;;;;;4907857;29;5094;-61
2024/02/03 11:04:39;;;;;;;;;;;;;;;;;;4919829;29;4530;-62
2024/02/03 11:07:04;;;;;;;;;;;;;;;;;;4924290;29;3747;-59
2024/02/03 11:09:29;;;;;;;;;;;;;;;;;;4908616;29;4928;-62
2024/02/03 11:11:55;;;;;;;;;;;;;;;;;;4911019;29;4707;-61
2024/02/03 11:14:21;;;;;;;;;;;;;;;;;;4925217;29;4713;-59
2024/02/03 11:17:12;;;;;;;;;;;;;;;;;;4924935;29;4545;-61
2024/02/03 11:19:38;;;;;;;;;;;;;;;;;;4923536;29;4709;-60
2024/02/03 11:22:03;;;;;;;;;;;;;;;;;;4921639;29;3810;-59
2024/02/03 11:24:29;;;;;;;;;;;;;;;;;;4908719;29;5045;-59
2024/02/03 11:26:55;;;;;;;;;;;;;;;;;;4909241;29;4484;-59
2024/02/03 11:29:20;;;;;;;;;;;;;;;;;;4928964;29;4789;-58
2024/02/03 11:31:46;;;;;;;;;;;;;;;;;;4918194;29;5152;-59
2024/02/03 11:34:21;;;;;;;;;;;;;;;;;;4906900;29;3522;-59
2024/02/03 11:36:46;;;;;;;;;;;;;;;;;;4925822;29;4427;-61
2024/02/03 11:39:12;;;;;;;;;;;;;;;;;;4922928;29;5223;-59
2024/02/03 11:41:37;;;;;;;;;;;;;;;;;;4927224;29;5254;-59
2024/02/03 11:44:02;;;;;;;;;;;;;;;;;;4906280;29;4959;-59
2024/02/03 11:46:28;;;;;;;;;;;;;;;;;;4923567;29;5087;-58
2024/02/03 11:48:53;;;;;;;;;;;;;;;;;;4921457;29;3723;-59
2024/02/03 11:51:18;;;;;;;;;;;;;;;;;;4926648;29;5282;-59
2024/02/03 11:53:44;;;;;;;;;;;;;;;;;;4909313;29;5140;-59
2024/02/03 11:56:09;;;;;;;;;;;;;;;;;;4925369;29;5070;-59
2024/02/03 11:58:35;;;;;;;;;;;;;;;;;;4929456;29;4916;-60
2024/02/03 12:01:11;;;;;;;;;;;;;;;;;;4915952;29;3711;-59
2024/02/03 12:03:37;;;;;;;;;;;;;;;;;;4908770;29;4949;-60
2024/02/03 12:06:03;;;;;;;;;;;;;;;;;;4910646;29;4654;-60
2024/02/03 12:08:29;;;;;;;;;;;;;;;;;;4910070;29;5418;-59
2024/02/03 12:10:54;;;;;;;;;;;;;;;;;;4911220;29;5358;-60
2024/02/03 12:13:20;;;;;;;;;;;;;;;;;;4905033;29;4580;-59
2024/02/03 12:15:45;;;;;;;;;;;;;;;;;;4925820;29;3658;-58
2024/02/03 12:18:10;;;;;;;;;;;;;;;;;;4922818;29;4992;-59
2024/02/03 12:20:36;;;;;;;;;;;;;;;;;;4929028;29;5139;-59
2024/02/03 12:23:01;;;;;;;;;;;;;;;;;;4911320;29;5611;-60
2024/02/03 12:25:27;;;;;;;;;;;;;;;;;;4926142;29;5303;-60
2024/02/03 12:27:53;;;;;;;;;;;;;;;;;;4932396;29;1273;-59
2024/02/03 12:30:18;;;;;;;;;;;;;;;;;;4926052;29;4659;-60
2024/02/03 12:32:45;;;;;;;;;;;;;;;;;;4925122;29;5140;-58
2024/02/03 12:35:10;;;;;;;;;;;;;;;;;;4911021;29;5108;-59
2024/02/03 12:37:36;;;;;;;;;;;;;;;;;;4929663;29;4711;-60
2024/02/03 12:40:01;;;;;;;;;;;;;;;;;;4930814;29;3467;-59
2024/02/03 12:42:26;;;;;;;;;;;;;;;;;;4911624;29;5041;-58
2024/02/03 12:44:51;;;;;;;;;;;;;;;;;;4904033;29;4562;-60
2024/02/03 12:47:17;;;;;;;;;;;;;;;;;;4931752;29;5147;-59
2024/02/03 12:49:42;;;;;;;;;;;;;;;;;;4913009;29;4906;-59
2024/02/03 12:52:07;;;;;;;;;;;;;;;;;;4930861;29;3446;-62
2024/02/03 12:54:33;;;;;;;;;;;;;;;;;;4929667;29;5258;-65
2024/02/03 12:56:58;;;;;;;;;;;;;;;;;;4908331;29;5223;-63
2024/02/03 12:59:23;;;;;;;;;;;;;;;;;;4927121;29;4851;-64
2024/02/03 13:01:48;;;;;;;;;;;;;;;;;;4925869;29;4804;-61
2024/02/03 13:04:14;;;;;;;;;;;;;;;;;;4920471;29;5252;-62
2024/02/03 13:06:39;;;;;;;;;;;;;;;;;;4930282;29;3537;-63
2024/02/03 13:09:04;;;;;;;;;;;;;;;;;;4896723;29;5042;-63
2024/02/03 13:11:30;;;;;;;;;;;;;;;;;;4928182;29;5433;-61
2024/02/03 13:13:55;;;;;;;;;;;;;;;;;;4928579;29;4779;-63
2024/02/03 13:16:21;;;;;;;;;;;;;;;;;;4908301;29;5008;-62
2024/02/03 13:18:46;;;;;;;;;;;;;;;;;;4930567;29;3699;-63
2024/02/03 13:21:12;;;;;;;;;;;;;;;;;;4928697;29;5088;-62
2024/02/03 13:23:37;;;;;;;;;;;;;;;;;;4930579;29;4542;-63
2024/02/03 13:26:02;;;;;;;;;;;;;;;;;;4923181;29;4672;-61
2024/02/03 13:28:28;;;;;;;;;;;;;;;;;;4928266;29;4734;-62
2024/02/03 13:30:53;;;;;;;;;;;;;;;;;;4904061;29;3503;-63
2024/02/03 13:33:18;;;;;;;;;;;;;;;;;;4929884;29;5168;-63
2024/02/03 13:35:44;;;;;;;;;;;;;;;;;;4927221;29;5055;-61
2024/02/03 13:38:09;;;;;;;;;;;;;;;;;;4927505;29;5025;-60
2024/02/03 13:40:34;;;;;;;;;;;;;;;;;;4927016;29;4552;-61
2024/02/03 13:43:00;;;;;;;;;;;;;;;;;;4924879;29;3695;-61
2024/02/03 13:45:26;;;;;;;;;;;;;;;;;;4926905;29;5105;-61
2024/02/03 13:47:51;;;;;;;;;;;;;;;;;;4925148;29;5020;-60
2024/02/03 13:50:18;;;;;;;;;;;;;;;;;;4927489;29;5024;-61
2024/02/03 13:52:43;;;;;;;;;;;;;;;;;;4930403;29;4702;-60
2024/02/03 13:55:08;;;;;;;;;;;;;;;;;;4930332;29;3557;-62
2024/02/03 13:57:34;;;;;;;;;;;;;;;;;;4910660;29;5023;-60
2024/02/03 13:59:59;;;;;;;;;;;;;;;;;;4922843;29;4566;-63
2024/02/03 14:02:24;;;;;;;;;;;;;;;;;;4924663;29;5158;-61
2024/02/03 14:04:50;;;;;;;;;;;;;;;;;;4929086;29;5107;-62
2024/02/03 14:07:15;;;;;;;;;;;;;;;;;;4929393;29;5187;-62
2024/02/03 14:09:40;;;;;;;;;;;;;;;;;;4904929;29;3692;-62
2024/02/03 14:12:06;;;;;;;;;;;;;;;;;;4925990;29;4743;-63
2024/02/03 14:14:31;;;;;;;;;;;;;;;;;;4928511;29;4692;-61
2024/02/03 14:16:57;;;;;;;;;;;;;;;;;;4924607;29;5092;-61
2024/02/03 14:19:22;;;;;;;;;;;;;;;;;;4926639;29;5138;-62
2024/02/03 14:21:48;;;;;;;;;;;;;;;;;;4926612;29;3549;-61
2024/02/03 14:24:13;;;;;;;;;;;;;;;;;;4904571;29;5062;-61
2024/02/03 14:26:40;;;;;;;;;;;;;;;;;;4909134;29;5287;-61
2024/02/03 14:29:05;;;;;;;;;;;;;;;;;;4904722;29;4668;-61
2024/02/03 14:31:31;;;;;;;;;;;;;;;;;;4921543;29;5006;-60
2024/02/03 14:33:56;;;;;;;;;;;;;;;;;;4928962;29;3703;-61
2024/02/03 14:36:21;;;;;;;;;;;;;;;;;;4923332;29;4856;-62
2024/02/03 14:38:47;;;;;;;;;;;;;;;;;;4923101;29;5025;-61
2024/02/03 14:41:12;;;;;;;;;;;;;;;;;;4928635;29;4639;-61
2024/02/03 14:43:37;;;;;;;;;;;;;;;;;;4920658;29;4736;-59
2024/02/03 14:46:03;;;;;;;;;;;;;;;;;;4896511;29;3622;-60
2024/02/03 14:48:28;;;;;;;;;;;;;;;;;;4905555;29;5174;-60
2024/02/03 14:50:53;;;;;;;;;;;;;;;;;;4923315;29;4552;-64
2024/02/03 14:53:19;;;;;;;;;;;;;;;;;;4922815;29;5057;-62
2024/02/03 14:55:44;;;;;;;;;;;;;;;;;;4929381;29;5021;-61
2024/02/03 14:58:09;;;;;;;;;;;;;;;;;;4928864;29;3599;-62
2024/02/03 15:00:34;;;;;;;;;;;;;;;;;;4905838;29;4628;-61
2024/02/03 15:03:00;;;;;;;;;;;;;;;;;;4911064;29;5069;-62
2024/02/03 15:05:25;;;;;;;;;;;;;;;;;;4930223;29;5059;-62
2024/02/03 15:07:50;;;;;;;;;;;;;;;;;;4930678;29;5108;-61
2024/02/03 15:10:16;;;;;;;;;;;;;;;;;;4925944;29;5126;-61
2024/02/03 15:12:41;;;;;;;;;;;;;;;;;;4925078;29;3585;-62
2024/02/03 15:15:06;;;;;;;;;;;;;;;;;;4911990;29;4820;-61
2024/02/03 15:17:32;;;;;;;;;;;;;;;;;;4927286;29;5162;-62
2024/02/03 15:19:57;;;;;;;;;;;;;;;;;;4919568;29;5156;-61
2024/02/03 15:22:23;;;;;;;;;;;;;;;;;;4930629;29;4885;-62
2024/02/03 15:24:48;;;;;;;;;;;;;;;;;;4930013;29;1120;-62
2024/02/03 15:27:13;;;;;;;;;;;;;;;;;;4927899;29;4422;-61
2024/02/03 15:29:39;;;;;;;;;;;;;;;;;;4923949;29;4568;-61
2024/02/03 15:32:04;;;;;;;;;;;;;;;;;;4928406;29;5376;-61
2024/02/03 15:34:30;;;;;;;;;;;;;;;;;;4927536;29;4956;-61
2024/02/03 15:36:56;;;;;;;;;;;;;;;;;;4926956;29;3190;-62
2024/02/03 15:39:22;;;;;;;;;;;;;;;;;;4923532;29;4928;-62
2024/02/03 15:41:47;;;;;;;;;;;;;;;;;;4925579;29;5075;-62
2024/02/03 15:44:12;;;;;;;;;;;;;;;;;;4918505;29;5182;-63
2024/02/03 15:46:38;;;;;;;;;;;;;;;;;;4903084;29;4980;-61
2024/02/03 15:49:03;;;;;;;;;;;;;;;;;;4926990;29;4096;-61
2024/02/03 15:51:28;;;;;;;;;;;;;;;;;;4929842;29;4925;-62
2024/02/03 15:53:54;;;;;;;;;;;;;;;;;;4929612;29;5199;-62
2024/02/03 15:56:19;;;;;;;;;;;;;;;;;;4927232;29;5139;-60
2024/02/03 15:58:44;;;;;;;;;;;;;;;;;;4912992;29;4616;-72
2024/02/03 16:01:10;;;;;;;;;;;;;;;;;;4933352;29;3633;-69
2024/02/03 16:03:35;;;;;;;;;;;;;;;;;;4933330;29;4985;-71
2024/02/03 16:06:02;;;;;;;;;;;;;;;;;;4930712;29;5009;-71
2024/02/03 16:08:27;;;;;;;;;;;;;;;;;;4928261;29;5198;-71
2024/02/03 16:10:52;;;;;;;;;;;;;;;;;;4932095;29;5201;-71
2024/02/03 16:13:18;;;;;;;;;;;;;;;;;;4931587;29;5161;-69
2024/02/03 16:15:43;;;;;;;;;;;;;;;;;;4914163;29;3605;-72
2024/02/03 16:18:10;;;;;;;;;;;;;;;;;;4914813;29;5454;-71
2024/02/03 16:20:38;;;;;;;;;;;;;;;;;;4933467;29;4708;-71
2024/02/03 16:23:03;;;;;;;;;;;;;;;;;;4914172;29;4907;-71
2024/02/03 16:25:29;;;;;;;;;;;;;;;;;;4929571;29;4981;-72
2024/02/03 16:27:54;;;;;;;;;;;;;;;;;;4932622;29;3645;-70
2024/02/03 16:30:19;;;;;;;;;;;;;;;;;;4928627;29;5057;-67
2024/02/03 16:32:44;;;;;;;;;;;;;;;;;;4925473;29;5067;-71
2024/02/03 16:35:10;;;;;;;;;;;;;;;;;;4930653;29;5356;-68
2024/02/03 16:37:35;;;;;;;;;;;;;;;;;;4924673;29;5103;-68
2024/02/03 16:40:00;;;;;;;;;;;;;;;;;;4932915;29;3564;-70
2024/02/03 16:42:26;;;;;;;;;;;;;;;;;;4924697;29;4525;-68
2024/02/03 16:44:51;;;;;;;;;;;;;;;;;;4926866;29;5290;-70
2024/02/03 16:47:16;;;;;;;;;;;;;;;;;;4927501;29;4677;-59
2024/02/03 16:49:42;;;;;;;;;;;;;;;;;;4931935;29;5057;-58
2024/02/03 16:52:07;;;;;;;;;;;;;;;;;;4930422;29;3469;-58